Time;durP1;ratioP1;P1;durP2;ratioP2;P2;SDS_P1;SDS_P2;PMS_P1;PMS_P2;Temp;Humidity;BMP_temperature;BMP_pressure;BME280_temperature;BME280_humidity;BME280_pressure;Samples;Min_cycle;Max_cycle;Signal;HPM_P1;HPM_P2
2024/04/20 00:01:53;;;;;;;1.83;1.73;;;6.50;99.90;;;;;;5349598;26;20607;-64
2024/04/20 00:04:23;;;;;;;1.70;1.50;;;6.60;99.90;;;;;;5351939;26;20489;-64
2024/04/20 00:06:53;;;;;;;2.40;1.80;;;6.60;99.90;;;;;;5353345;26;20542;-64
2024/04/20 00:09:23;;;;;;;1.70;1.60;;;6.60;99.90;;;;;;5346699;26;20558;-64
2024/04/20 00:11:53;;;;;;;1.60;1.50;;;6.60;99.90;;;;;;5352997;26;20865;-64
2024/04/20 00:14:25;;;;;;;1.70;1.60;;;6.60;99.90;;;;;;5334989;26;20887;-64
2024/04/20 00:16:55;;;;;;;1.83;1.70;;;6.60;99.90;;;;;;5353131;26;20491;-64
2024/04/20 00:19:25;;;;;;;2.43;1.90;;;6.60;99.90;;;;;;5351461;26;20516;-64
2024/04/20 00:21:55;;;;;;;1.83;1.73;;;6.70;99.90;;;;;;5352199;26;20930;-64
2024/04/20 00:24:25;;;;;;;2.00;1.60;;;6.70;99.90;;;;;;5355821;26;21069;-64
2024/04/20 00:26:55;;;;;;;2.00;1.80;;;6.60;99.90;;;;;;5357533;26;20547;-64
2024/04/20 00:29:27;;;;;;;1.83;1.70;;;6.60;99.90;;;;;;5349147;26;20488;-64
2024/04/20 00:31:57;;;;;;;1.70;1.60;;;6.60;99.90;;;;;;5343820;26;20949;-64
2024/04/20 00:34:28;;;;;;;2.30;1.90;;;6.60;99.90;;;;;;5348491;26;20485;-64
2024/04/20 00:36:58;;;;;;;1.90;1.80;;;6.60;99.90;;;;;;5346206;26;20879;-64
2024/04/20 00:39:28;;;;;;;1.50;1.40;;;6.50;99.90;;;;;;5343415;26;20605;-64
2024/04/20 00:41:58;;;;;;;2.33;1.80;;;6.50;99.90;;;;;;5345030;26;20485;-64
2024/04/20 00:44:32;;;;;;;1.93;1.80;;;6.60;99.90;;;;;;5343041;26;20488;-63
2024/04/20 00:47:02;;;;;;;2.53;2.30;;;6.50;99.90;;;;;;5346263;26;20488;-64
2024/04/20 00:49:33;;;;;;;1.90;1.80;;;6.50;99.90;;;;;;5341706;26;21021;-64
2024/04/20 00:52:06;;;;;;;2.13;1.93;;;6.40;99.90;;;;;;5355615;26;20759;-64
2024/04/20 00:54:39;;;;;;;3.10;1.93;;;6.50;99.90;;;;;;5351615;26;20537;-65
2024/04/20 00:57:10;;;;;;;2.50;2.30;;;6.40;99.90;;;;;;5336731;26;20534;-63
2024/04/20 00:59:42;;;;;;;2.10;1.90;;;6.40;99.90;;;;;;5340641;26;20492;-64
2024/04/20 01:02:13;;;;;;;2.53;1.87;;;6.40;99.90;;;;;;5349206;26;20603;-66
2024/04/20 01:04:43;;;;;;;2.00;1.90;;;6.40;99.90;;;;;;5334704;26;20484;-64
2024/04/20 01:07:14;;;;;;;2.90;2.00;;;6.40;99.90;;;;;;5341963;26;20534;-64
2024/04/20 01:09:43;;;;;;;3.27;2.10;;;6.40;99.90;;;;;;5338326;26;20973;-64
2024/04/20 01:12:13;;;;;;;2.00;1.77;;;6.40;99.90;;;;;;5342705;26;20533;-64
2024/04/20 01:14:46;;;;;;;2.03;1.87;;;6.30;99.90;;;;;;5336593;26;20610;-64
2024/04/20 01:17:16;;;;;;;1.80;1.70;;;6.30;99.90;;;;;;5346768;26;20537;-64
2024/04/20 01:19:45;;;;;;;2.27;2.07;;;6.40;99.90;;;;;;5343737;26;20484;-64
2024/04/20 01:22:15;;;;;;;1.60;1.50;;;6.40;99.90;;;;;;5346243;26;20488;-64
2024/04/20 01:24:45;;;;;;;1.60;1.50;;;6.40;99.90;;;;;;5337128;26;20526;-64
2024/04/20 01:27:18;;;;;;;1.80;1.70;;;6.40;99.90;;;;;;5336580;26;20537;-64
2024/04/20 01:29:48;;;;;;;1.70;1.60;;;6.40;99.90;;;;;;5344513;26;20477;-64
2024/04/20 01:32:19;;;;;;;1.60;1.50;;;6.40;99.90;;;;;;5337447;26;21034;-64
2024/04/20 01:34:49;;;;;;;1.60;1.40;;;6.40;99.90;;;;;;5337899;26;20809;-64
2024/04/20 01:37:19;;;;;;;1.70;1.60;;;6.50;99.90;;;;;;5336965;26;20536;-64
2024/04/20 01:39:49;;;;;;;2.00;1.80;;;6.50;99.90;;;;;;5333819;26;20830;-64
2024/04/20 01:42:19;;;;;;;1.53;1.43;;;6.50;99.90;;;;;;5340709;26;20483;-64
2024/04/20 01:44:49;;;;;;;1.53;1.43;;;6.50;99.90;;;;;;5335514;26;20497;-64
2024/04/20 01:47:19;;;;;;;1.40;1.30;;;6.50;99.90;;;;;;5332121;26;20585;-64
2024/04/20 01:49:49;;;;;;;2.03;1.90;;;6.50;99.90;;;;;;5336109;26;20476;-64
2024/04/20 01:52:19;;;;;;;1.50;1.40;;;6.50;99.90;;;;;;5337669;26;20620;-64
2024/04/20 01:54:49;;;;;;;1.60;1.50;;;6.50;99.90;;;;;;5337152;26;21070;-64
2024/04/20 01:57:22;;;;;;;2.73;1.73;;;6.50;99.90;;;;;;5330393;26;20489;-64
2024/04/20 01:59:52;;;;;;;1.50;1.40;;;6.50;99.90;;;;;;5340870;26;20647;-64
2024/04/20 02:02:22;;;;;;;1.43;1.33;;;6.50;99.90;;;;;;5342761;26;20545;-64
2024/04/20 02:04:52;;;;;;;1.40;1.30;;;6.50;99.90;;;;;;5342961;26;20829;-64
2024/04/20 02:07:22;;;;;;;1.50;1.40;;;6.50;99.90;;;;;;5337417;26;20489;-64
2024/04/20 02:09:52;;;;;;;1.60;1.50;;;6.50;99.90;;;;;;5350650;26;20482;-64
2024/04/20 02:12:24;;;;;;;1.80;1.60;;;6.50;99.90;;;;;;5340985;26;20482;-64
2024/04/20 02:14:54;;;;;;;1.70;1.60;;;6.50;99.90;;;;;;5334190;26;20483;-64
2024/04/20 02:17:25;;;;;;;2.07;1.77;;;6.50;99.90;;;;;;5341292;26;20477;-64
2024/04/20 02:19:55;;;;;;;1.57;1.47;;;6.50;99.90;;;;;;5352172;26;20489;-64
2024/04/20 02:22:25;;;;;;;2.10;2.00;;;6.50;99.90;;;;;;5341990;26;21159;-64
2024/04/20 02:24:55;;;;;;;1.60;1.50;;;6.40;99.90;;;;;;5347899;26;20490;-64
2024/04/20 02:27:27;;;;;;;4.47;1.97;;;6.40;99.90;;;;;;5349359;26;21157;-64
2024/04/20 02:29:57;;;;;;;2.70;1.93;;;6.40;99.90;;;;;;5334806;26;20485;-64
2024/04/20 02:32:27;;;;;;;2.80;2.20;;;6.40;99.90;;;;;;5336466;26;20544;-64
2024/04/20 02:34:57;;;;;;;2.83;2.13;;;6.40;99.90;;;;;;5343163;26;20493;-64
2024/04/20 02:37:27;;;;;;;2.40;2.20;;;6.40;99.90;;;;;;5349853;26;20560;-64
2024/04/20 02:39:57;;;;;;;4.57;2.13;;;6.30;99.90;;;;;;5345580;26;20485;-65
2024/04/20 02:42:33;;;;;;;2.23;1.90;;;6.30;99.90;;;;;;5355343;26;21160;-65
2024/04/20 02:45:04;;;;;;;2.57;2.37;;;6.30;99.90;;;;;;5334738;26;20500;-65
2024/04/20 02:47:33;;;;;;;2.50;2.30;;;6.20;99.90;;;;;;5334875;26;20493;-65
2024/04/20 02:50:01;;;;;;;2.47;2.27;;;6.20;99.90;;;;;;5342118;26;20842;-64
2024/04/20 02:52:31;;;;;;;2.63;2.43;;;6.10;99.90;;;;;;5343539;26;20920;-65
2024/04/20 02:55:01;;;;;;;2.90;2.70;;;6.10;99.90;;;;;;5359891;26;21012;-65
2024/04/20 02:57:33;;;;;;;2.20;2.00;;;6.10;99.90;;;;;;5348833;26;20938;-64
2024/04/20 03:00:03;;;;;;;2.90;2.60;;;6.10;99.90;;;;;;5356347;26;20538;-65
2024/04/20 03:02:33;;;;;;;2.40;2.20;;;6.10;99.90;;;;;;5352442;26;21075;-64
2024/04/20 03:05:04;;;;;;;2.73;2.40;;;6.00;99.90;;;;;;5337835;26;21141;-65
2024/04/20 03:07:34;;;;;;;2.57;2.37;;;6.00;99.90;;;;;;5351562;26;20565;-65
2024/04/20 03:10:04;;;;;;;2.97;2.53;;;5.90;99.90;;;;;;5348694;26;20481;-64
2024/04/20 03:12:36;;;;;;;2.07;1.93;;;5.90;99.90;;;;;;5336923;26;20552;-65
2024/04/20 03:15:07;;;;;;;3.53;2.90;;;5.80;99.90;;;;;;5352237;26;20540;-64
2024/04/20 03:17:37;;;;;;;2.63;2.40;;;5.80;99.90;;;;;;5334240;26;21757;-65
2024/04/20 03:20:08;;;;;;;2.43;2.23;;;5.70;99.90;;;;;;5336314;26;20485;-64
2024/04/20 03:22:37;;;;;;;2.60;2.30;;;5.70;99.90;;;;;;5331921;26;20543;-64
2024/04/20 03:25:12;;;;;;;2.90;2.70;;;5.60;99.90;;;;;;5356907;26;20550;-65
2024/04/20 03:27:46;;;;;;;2.60;2.27;;;5.60;99.90;;;;;;5347288;26;20502;-64
2024/04/20 03:30:15;;;;;;;2.43;2.17;;;5.50;99.90;;;;;;5348209;26;20489;-65
2024/04/20 03:32:45;;;;;;;2.33;2.13;;;5.50;99.90;;;;;;5351598;26;20496;-65
2024/04/20 03:35:15;;;;;;;2.23;2.03;;;5.50;99.90;;;;;;5355675;26;20481;-65
2024/04/20 03:37:45;;;;;;;2.20;2.00;;;5.40;99.90;;;;;;5354750;26;20494;-65
2024/04/20 03:40:16;;;;;;;2.90;2.60;;;5.40;99.90;;;;;;5350395;26;20466;-64
2024/04/20 03:42:48;;;;;;;2.73;2.43;;;5.40;99.90;;;;;;5348409;26;20563;-64
2024/04/20 03:45:18;;;;;;;2.60;2.10;;;5.30;99.90;;;;;;5352362;26;20593;-64
2024/04/20 03:47:48;;;;;;;2.67;2.47;;;5.30;99.90;;;;;;5356385;26;20491;-65
2024/04/20 03:50:20;;;;;;;2.67;2.47;;;5.20;99.90;;;;;;5346164;26;21058;-65
2024/04/20 03:52:49;;;;;;;1.97;1.87;;;5.20;99.90;;;;;;5356787;26;20594;-65
2024/04/20 03:55:19;;;;;;;2.30;2.10;;;5.20;99.90;;;;;;5353731;26;20505;-65
2024/04/20 03:57:52;;;;;;;2.90;2.47;;;5.10;99.90;;;;;;5349046;26;20499;-64
2024/04/20 04:00:22;;;;;;;2.57;2.37;;;5.10;99.90;;;;;;5350742;26;20542;-65
2024/04/20 04:02:54;;;;;;;2.50;2.30;;;5.10;99.90;;;;;;5344535;26;20552;-65
2024/04/20 04:05:23;;;;;;;6.33;2.50;;;5.00;99.90;;;;;;5349266;26;20489;-65
2024/04/20 04:07:53;;;;;;;3.10;2.30;;;5.00;99.90;;;;;;5344708;26;20501;-65
2024/04/20 04:10:23;;;;;;;1.77;1.60;;;5.00;99.90;;;;;;5358502;26;20488;-65
2024/04/20 04:13:03;;;;;;;1.80;1.70;;;5.00;99.90;;;;;;5342563;26;20596;-66
2024/04/20 04:15:33;;;;;;;2.40;2.20;;;5.00;99.90;;;;;;5345804;26;20844;-65
2024/04/20 04:18:02;;;;;;;2.10;1.90;;;4.90;99.90;;;;;;5348339;26;20493;-64
2024/04/20 04:20:33;;;;;;;2.20;2.00;;;4.90;99.90;;;;;;5353560;26;20536;-64
2024/04/20 04:23:03;;;;;;;2.30;2.10;;;4.90;99.90;;;;;;5341670;26;20488;-64
2024/04/20 04:25:35;;;;;;;4.50;2.37;;;4.90;99.90;;;;;;5348583;26;20485;-65
2024/04/20 04:28:08;;;;;;;2.50;2.30;;;4.90;99.90;;;;;;5350091;26;20476;-64
2024/04/20 04:30:38;;;;;;;2.20;2.00;;;4.90;99.90;;;;;;5339094;26;20538;-64
2024/04/20 04:33:08;;;;;;;2.57;2.17;;;4.90;99.90;;;;;;5348997;26;20500;-64
2024/04/20 04:35:38;;;;;;;3.40;2.20;;;4.90;99.90;;;;;;5344381;26;20546;-65
2024/04/20 04:38:08;;;;;;;2.20;2.00;;;4.90;99.90;;;;;;5340121;26;20572;-65
2024/04/20 04:40:38;;;;;;;2.43;2.23;;;4.80;99.90;;;;;;5345992;26;20485;-65
2024/04/20 04:43:10;;;;;;;2.20;1.93;;;4.80;99.90;;;;;;5336618;26;20484;-66
2024/04/20 04:45:40;;;;;;;2.23;2.03;;;4.80;99.90;;;;;;5339133;26;20962;-66
2024/04/20 04:48:10;;;;;;;2.63;2.43;;;4.70;99.90;;;;;;5352024;26;21059;-66
2024/04/20 04:50:40;;;;;;;2.27;2.07;;;4.70;99.90;;;;;;5353136;26;20484;-66
2024/04/20 04:53:09;;;;;;;2.13;1.93;;;4.70;99.90;;;;;;5351558;26;20488;-67
2024/04/20 04:55:39;;;;;;;2.70;2.50;;;4.70;99.90;;;;;;5350169;26;20540;-66
2024/04/20 04:58:12;;;;;;;2.20;2.00;;;4.70;99.90;;;;;;5348639;26;20578;-66
2024/04/20 05:00:42;;;;;;;2.30;2.10;;;4.70;99.90;;;;;;5342631;26;20514;-65
2024/04/20 05:03:12;;;;;;;2.33;2.13;;;4.70;99.90;;;;;;5334157;26;24763;-65
2024/04/20 05:05:48;;;;;;;3.13;2.73;;;4.70;99.90;;;;;;5341402;26;20489;-65
2024/04/20 05:08:18;;;;;;;2.20;2.00;;;4.70;99.90;;;;;;5337074;26;20491;-65
2024/04/20 05:10:48;;;;;;;2.40;2.20;;;4.70;99.90;;;;;;5332765;26;20469;-65
2024/04/20 05:13:20;;;;;;;2.40;2.20;;;4.70;99.90;;;;;;5338512;26;20545;-65
2024/04/20 05:15:50;;;;;;;3.40;2.50;;;4.70;99.90;;;;;;5344562;26;20536;-65
2024/04/20 05:18:20;;;;;;;2.97;2.47;;;4.60;99.90;;;;;;5341898;26;21191;-64
2024/04/20 05:20:50;;;;;;;3.67;2.13;;;4.60;99.90;;;;;;5344052;26;20524;-65
2024/04/20 05:23:20;;;;;;;2.97;2.57;;;4.70;99.90;;;;;;5341026;26;20553;-65
2024/04/20 05:25:50;;;;;;;2.80;2.43;;;4.70;99.90;;;;;;5346426;26;20492;-64
2024/04/20 05:28:22;;;;;;;2.50;2.30;;;4.70;99.90;;;;;;5343610;26;20556;-65
2024/04/20 05:30:52;;;;;;;3.20;2.10;;;4.80;99.90;;;;;;5334458;26;20494;-64
2024/04/20 05:33:19;;;;;;;3.00;2.80;;;4.80;99.90;;;;;;5323960;26;20496;-65
2024/04/20 05:35:49;;;;;;;2.87;2.57;;;4.80;99.90;;;;;;5311995;26;20502;-64
2024/04/20 05:38:19;;;;;;;2.30;2.13;;;4.80;99.90;;;;;;5308433;26;20544;-65
2024/04/20 05:40:49;;;;;;;2.80;2.50;;;4.80;99.90;;;;;;5319493;26;20532;-65
2024/04/20 05:43:21;;;;;;;2.87;2.40;;;4.80;99.90;;;;;;5314018;26;20493;-65
2024/04/20 05:45:51;;;;;;;2.30;2.10;;;4.90;99.90;;;;;;5314096;26;20557;-65
2024/04/20 05:48:21;;;;;;;2.97;2.70;;;5.00;99.90;;;;;;5304861;26;20544;-65
2024/04/20 05:50:51;;;;;;;2.67;2.47;;;5.00;99.90;;;;;;5320664;26;20621;-64
2024/04/20 05:53:21;;;;;;;2.47;2.27;;;5.00;99.90;;;;;;5321697;26;20548;-65
2024/04/20 05:55:50;;;;;;;2.83;2.53;;;5.00;99.90;;;;;;5328202;26;20485;-64
2024/04/20 05:58:23;;;;;;;2.57;2.37;;;5.00;99.90;;;;;;5324154;26;22051;-66
2024/04/20 06:00:53;;;;;;;2.70;2.50;;;5.00;99.90;;;;;;5327762;26;20495;-66
2024/04/20 06:03:23;;;;;;;2.80;2.27;;;5.10;99.90;;;;;;5321636;26;20531;-66
2024/04/20 06:05:53;;;;;;;3.00;2.63;;;5.10;99.90;;;;;;5326958;26;21210;-66
2024/04/20 06:08:23;;;;;;;2.50;2.30;;;5.20;99.90;;;;;;5320960;26;20580;-66
2024/04/20 06:10:56;;;;;;;3.43;2.90;;;5.20;99.90;;;;;;5325656;26;20485;-66
2024/04/20 06:13:30;;;;;;;3.10;2.80;;;5.20;99.90;;;;;;5338091;26;20482;-66
2024/04/20 06:16:00;;;;;;;3.30;2.70;;;5.30;99.90;;;;;;5328416;26;21000;-66
2024/04/20 06:18:30;;;;;;;3.23;2.87;;;5.40;99.90;;;;;;5324918;26;20556;-66
2024/04/20 06:20:59;;;;;;;3.00;2.70;;;5.40;99.90;;;;;;5337852;26;20492;-66
2024/04/20 06:23:29;;;;;;;3.30;3.07;;;5.40;99.90;;;;;;5326947;26;20471;-68
2024/04/20 06:25:59;;;;;;;4.43;3.23;;;5.40;99.90;;;;;;5332786;26;20537;-65
2024/04/20 06:28:29;;;;;;;3.40;2.50;;;5.50;99.90;;;;;;5336458;26;20830;-65
2024/04/20 06:30:59;;;;;;;3.23;2.77;;;5.60;99.90;;;;;;5330829;26;20489;-66
2024/04/20 06:33:29;;;;;;;4.60;3.00;;;5.60;99.90;;;;;;5309247;26;20480;-66
2024/04/20 06:35:59;;;;;;;3.37;2.97;;;5.60;99.90;;;;;;5307729;26;24422;-66
2024/04/20 06:38:29;;;;;;;3.10;2.80;;;5.60;99.90;;;;;;5311335;26;21148;-66
2024/04/20 06:40:59;;;;;;;3.40;2.73;;;5.70;99.90;;;;;;5308938;26;20492;-66
2024/04/20 06:43:32;;;;;;;3.37;3.07;;;5.70;99.90;;;;;;5310420;26;20469;-65
2024/04/20 06:46:01;;;;;;;2.87;2.67;;;5.80;99.90;;;;;;5296908;26;20543;-65
2024/04/20 06:48:32;;;;;;;3.50;3.00;;;5.90;99.90;;;;;;5297999;26;20582;-65
2024/04/20 06:51:02;;;;;;;3.07;2.53;;;6.00;99.90;;;;;;5305431;26;20469;-65
2024/04/20 06:53:32;;;;;;;3.00;2.73;;;6.10;99.90;;;;;;5299440;26;21106;-65
2024/04/20 06:56:02;;;;;;;3.90;3.10;;;6.20;99.90;;;;;;5312455;26;23897;-65
2024/04/20 06:58:35;;;;;;;3.30;2.90;;;6.30;99.90;;;;;;5304599;26;21053;-64
2024/04/20 07:01:05;;;;;;;2.90;2.70;;;6.40;99.90;;;;;;5306013;26;20536;-65
2024/04/20 07:03:37;;;;;;;4.63;3.33;;;6.40;99.90;;;;;;5309374;26;20465;-68
2024/04/20 07:06:07;;;;;;;5.73;3.40;;;6.40;99.90;;;;;;5317807;26;23492;-68
2024/04/20 07:08:40;;;;;;;3.60;3.00;;;6.50;99.90;;;;;;5309158;26;20607;-66
2024/04/20 07:11:10;;;;;;;4.50;2.97;;;6.60;99.90;;;;;;5317532;26;20828;-66
2024/04/20 07:13:43;;;;;;;3.30;3.00;;;6.70;99.90;;;;;;5323901;26;20597;-66
2024/04/20 07:16:13;;;;;;;4.23;3.27;;;6.80;99.90;;;;;;5314777;26;20489;-66
2024/04/20 07:18:44;;;;;;;2.60;2.40;;;6.80;99.90;;;;;;5307037;26;20604;-66
2024/04/20 07:21:14;;;;;;;3.13;2.30;;;6.90;99.90;;;;;;5312981;26;20566;-66
2024/04/20 07:23:44;;;;;;;3.30;3.00;;;7.00;99.90;;;;;;5303034;26;20482;-66
2024/04/20 07:26:14;;;;;;;3.03;2.73;;;7.10;99.90;;;;;;5315107;26;20493;-66
2024/04/20 07:28:46;;;;;;;3.10;2.80;;;7.10;99.90;;;;;;5310687;26;20604;-66
2024/04/20 07:31:16;;;;;;;3.87;2.73;;;7.10;99.90;;;;;;5317000;26;20522;-65
2024/04/20 07:33:46;;;;;;;3.10;2.87;;;7.20;99.90;;;;;;5310907;26;20550;-66
2024/04/20 07:36:16;;;;;;;2.73;2.53;;;7.30;99.90;;;;;;5319222;26;21981;-66
2024/04/20 07:38:46;;;;;;;4.50;2.83;;;7.40;99.90;;;;;;5328448;26;20547;-66
2024/04/20 07:41:16;;;;;;;4.30;2.60;;;7.40;99.90;;;;;;5304725;26;20547;-65
2024/04/20 07:43:48;;;;;;;2.57;2.37;;;7.50;99.90;;;;;;5315299;26;20536;-66
2024/04/20 07:46:18;;;;;;;2.90;2.60;;;7.60;99.90;;;;;;5326002;26;20541;-66
2024/04/20 07:48:48;;;;;;;2.90;2.70;;;7.60;99.90;;;;;;5316388;26;21077;-67
2024/04/20 07:51:18;;;;;;;2.60;2.40;;;7.60;99.90;;;;;;5329219;26;20595;-67
2024/04/20 07:53:48;;;;;;;2.90;2.70;;;7.70;99.90;;;;;;5334852;26;20480;-67
2024/04/20 07:56:18;;;;;;;2.83;2.40;;;7.70;99.90;;;;;;5336788;26;20516;-67
2024/04/20 07:58:50;;;;;;;3.30;2.73;;;7.80;99.90;;;;;;5326818;26;20533;-67
2024/04/20 08:01:20;;;;;;;5.10;2.67;;;7.80;99.90;;;;;;5334900;26;21345;-67
2024/04/20 08:03:51;;;;;;;6.47;2.73;;;7.80;99.90;;;;;;5331145;26;20607;-67
2024/04/20 08:06:23;;;;;;;3.00;2.70;;;7.80;99.90;;;;;;5335265;26;21058;-67
2024/04/20 08:08:54;;;;;;;3.10;2.80;;;7.80;99.90;;;;;;5345881;26;20898;-67
2024/04/20 08:11:23;;;;;;;2.33;2.13;;;7.80;99.90;;;;;;5348603;26;21050;-67
2024/04/20 08:13:56;;;;;;;2.67;2.47;;;7.80;99.90;;;;;;5325458;26;21466;-66
2024/04/20 08:16:26;;;;;;;2.80;2.60;;;7.80;99.90;;;;;;5329007;26;20476;-68
2024/04/20 08:18:55;;;;;;;2.73;2.53;;;7.90;99.90;;;;;;5323903;26;20494;-67
2024/04/20 08:21:25;;;;;;;3.20;2.50;;;7.90;99.90;;;;;;5329227;26;20893;-67
2024/04/20 08:23:55;;;;;;;2.50;2.30;;;8.00;99.90;;;;;;5340960;26;20967;-67
2024/04/20 08:26:25;;;;;;;3.00;2.60;;;8.00;99.90;;;;;;5338957;26;20495;-67
2024/04/20 08:28:58;;;;;;;2.97;2.77;;;8.00;99.90;;;;;;5325402;26;20478;-66
2024/04/20 08:31:27;;;;;;;2.03;1.83;;;8.00;99.90;;;;;;5331845;26;21020;-66
2024/04/20 08:33:57;;;;;;;2.60;2.40;;;8.10;99.90;;;;;;5320616;26;20599;-67
2024/04/20 08:36:27;;;;;;;2.63;2.43;;;8.10;99.90;;;;;;5314794;26;20484;-67
2024/04/20 08:38:57;;;;;;;3.73;2.47;;;8.20;99.90;;;;;;5322316;26;20569;-66
2024/04/20 08:41:28;;;;;;;2.50;2.30;;;8.20;99.90;;;;;;5332291;26;20489;-67
2024/04/20 08:44:03;;;;;;;2.40;2.20;;;8.30;99.90;;;;;;5331202;26;20617;-66
2024/04/20 08:46:33;;;;;;;2.33;2.13;;;8.30;99.90;;;;;;5318778;26;21097;-66
2024/04/20 08:49:06;;;;;;;2.50;2.30;;;8.30;99.90;;;;;;5315266;26;20501;-67
2024/04/20 08:51:37;;;;;;;2.60;2.40;;;8.30;99.90;;;;;;5319594;26;20524;-67
2024/04/20 08:54:08;;;;;;;1.97;1.87;;;8.40;99.90;;;;;;5329457;26;20489;-67
2024/04/20 08:56:40;;;;;;;2.17;2.07;;;8.50;99.90;;;;;;5332920;26;20485;-68
2024/04/20 08:59:13;;;;;;;2.80;2.30;;;8.50;99.90;;;;;;5327527;26;20489;-67
2024/04/20 09:01:43;;;;;;;2.43;2.23;;;8.50;99.90;;;;;;5330714;26;21766;-67
2024/04/20 09:04:14;;;;;;;2.30;2.10;;;8.60;99.90;;;;;;5333417;26;20548;-66
2024/04/20 09:06:44;;;;;;;2.53;2.20;;;8.70;99.90;;;;;;5328771;26;20565;-67
2024/04/20 09:09:14;;;;;;;2.93;2.40;;;8.70;99.90;;;;;;5328015;26;21045;-66
2024/04/20 09:11:44;;;;;;;2.33;2.13;;;8.70;99.90;;;;;;5339507;26;20490;-66
2024/04/20 09:14:34;;;;;;;2.00;1.90;;;8.70;99.90;;;;;;5335741;26;20493;-66
2024/04/20 09:17:04;;;;;;;3.13;2.20;;;8.80;99.90;;;;;;5339750;26;20493;-66
2024/04/20 09:19:34;;;;;;;2.30;2.20;;;8.80;99.90;;;;;;5340151;26;20500;-66
2024/04/20 09:22:12;;;;;;;2.40;2.20;;;8.80;99.90;;;;;;5350581;26;20737;-66
2024/04/20 09:24:42;;;;;;;1.87;1.77;;;8.80;99.90;;;;;;5337370;26;20540;-66
2024/04/20 09:27:13;;;;;;;2.17;1.93;;;8.80;99.90;;;;;;5337504;26;20493;-66
2024/04/20 09:29:47;;;;;;;2.40;2.20;;;8.90;99.90;;;;;;5347397;26;20545;-66
2024/04/20 09:32:17;;;;;;;2.40;2.20;;;8.80;99.90;;;;;;5334144;26;20501;-65
2024/04/20 09:34:51;;;;;;;2.70;2.40;;;8.70;99.90;;;;;;5334341;26;20480;-66
2024/04/20 09:37:21;;;;;;;2.30;2.10;;;8.70;99.90;;;;;;5331736;26;20536;-66
2024/04/20 09:39:53;;;;;;;4.47;2.20;;;8.70;99.90;;;;;;5341644;26;21059;-66
2024/04/20 09:42:24;;;;;;;2.00;1.90;;;8.80;99.90;;;;;;5335968;26;20482;-66
2024/04/20 09:44:57;;;;;;;2.67;2.30;;;8.90;99.90;;;;;;5339177;26;20485;-66
2024/04/20 09:47:28;;;;;;;3.40;2.17;;;8.90;99.90;;;;;;5344618;26;20485;-66
2024/04/20 09:49:59;;;;;;;2.30;2.10;;;8.80;99.90;;;;;;5349920;26;20546;-66
2024/04/20 09:52:39;;;;;;;2.33;2.13;;;8.90;99.90;;;;;;5343415;26;20485;-66
2024/04/20 09:55:11;;;;;;;2.60;2.40;;;8.90;99.90;;;;;;5333417;26;20638;-66
2024/04/20 09:57:42;;;;;;;3.10;2.80;;;8.80;99.90;;;;;;5348190;26;21155;-67
2024/04/20 10:00:18;;;;;;;2.60;2.40;;;8.80;99.90;;;;;;5341356;26;20541;-66
2024/04/20 10:02:48;;;;;;;3.10;2.60;;;8.80;99.90;;;;;;5334245;26;20488;-66
2024/04/20 10:05:20;;;;;;;2.83;2.33;;;8.80;99.90;;;;;;5332846;26;20489;-63
2024/04/20 10:07:52;;;;;;;3.00;2.80;;;8.80;99.90;;;;;;5339679;26;20966;-63
2024/04/20 10:10:27;;;;;;;2.90;2.70;;;8.80;99.90;;;;;;5334264;26;20580;-63
2024/04/20 10:13:02;;;;;;;2.87;2.67;;;8.90;99.90;;;;;;5329832;26;20489;-64
2024/04/20 10:15:37;;;;;;;3.40;3.10;;;8.90;99.90;;;;;;5331793;26;20599;-64
2024/04/20 10:18:07;;;;;;;3.23;3.00;;;9.00;99.90;;;;;;5331385;26;20567;-64
2024/04/20 10:20:40;;;;;;;3.13;2.93;;;9.00;99.90;;;;;;5333167;26;20522;-64
2024/04/20 10:23:17;;;;;;;2.73;2.53;;;9.00;99.90;;;;;;5340524;26;20593;-64
2024/04/20 10:25:49;;;;;;;2.90;2.60;;;9.00;99.90;;;;;;5326180;26;20528;-64
2024/04/20 10:28:30;;;;;;;2.80;2.60;;;9.10;99.90;;;;;;5343365;26;20493;-64
2024/04/20 10:31:04;;;;;;;2.80;2.60;;;9.20;99.90;;;;;;5338805;26;21002;-64
2024/04/20 10:33:37;;;;;;;2.50;2.30;;;9.10;99.90;;;;;;5335321;26;20488;-64
2024/04/20 10:36:12;;;;;;;1.87;1.77;;;9.00;99.90;;;;;;5337062;26;20544;-64
2024/04/20 10:38:42;;;;;;;1.60;1.50;;;9.00;99.90;;;;;;5350320;26;20500;-64
2024/04/20 10:41:16;;;;;;;1.30;1.20;;;8.90;99.90;;;;;;5342041;26;20991;-64
2024/04/20 10:43:47;;;;;;;1.40;1.30;;;8.70;99.90;;;;;;5343126;26;20496;-64
2024/04/20 10:46:22;;;;;;;1.80;1.67;;;8.70;99.90;;;;;;5337026;26;20560;-64
2024/04/20 10:48:58;;;;;;;2.07;1.87;;;8.70;99.90;;;;;;5349929;26;21088;-64
2024/04/20 10:51:29;;;;;;;2.53;1.70;;;8.70;99.90;;;;;;5347668;26;20545;-64
2024/04/20 10:54:01;;;;;;;2.17;1.90;;;8.70;99.90;;;;;;5336517;26;20532;-64
2024/04/20 10:56:32;;;;;;;2.07;1.60;;;8.70;99.90;;;;;;5332348;26;20487;-64
2024/04/20 10:59:02;;;;;;;1.70;1.60;;;8.60;99.90;;;;;;5339960;26;20843;-63
2024/04/20 11:01:35;;;;;;;1.50;1.40;;;8.60;99.90;;;;;;5346535;26;20482;-64
2024/04/20 11:04:05;;;;;;;1.60;1.43;;;8.50;99.90;;;;;;5335647;26;20517;-64
2024/04/20 11:06:35;;;;;;;1.67;1.57;;;8.50;99.90;;;;;;5330398;26;21091;-64
2024/04/20 11:09:05;;;;;;;1.70;1.60;;;8.40;99.90;;;;;;5337001;26;20495;-64
2024/04/20 11:11:35;;;;;;;1.80;1.50;;;8.40;99.90;;;;;;5336710;26;20524;-64
2024/04/20 11:14:05;;;;;;;1.30;1.20;;;8.40;99.90;;;;;;5332613;26;21243;-65
2024/04/20 11:16:37;;;;;;;1.30;1.20;;;8.40;99.90;;;;;;5335891;26;21125;-66
2024/04/20 11:19:11;;;;;;;2.30;1.20;;;8.40;99.90;;;;;;5330209;26;20542;-65
2024/04/20 11:21:42;;;;;;;1.43;1.33;;;8.40;99.90;;;;;;5335555;26;21131;-65
2024/04/20 11:24:12;;;;;;;2.80;1.40;;;8.40;99.90;;;;;;5339757;26;20606;-65
2024/04/20 11:26:42;;;;;;;1.83;1.30;;;8.40;99.90;;;;;;5349600;26;21012;-65
2024/04/20 11:29:16;;;;;;;1.00;1.00;;;8.40;99.90;;;;;;5343803;26;20478;-65
2024/04/20 11:31:48;;;;;;;1.50;1.40;;;8.40;99.90;;;;;;5342534;26;20493;-65
2024/04/20 11:34:24;;;;;;;1.20;1.10;;;8.40;99.90;;;;;;5348097;26;20489;-65
2024/04/20 11:36:54;;;;;;;1.40;1.30;;;8.30;99.90;;;;;;5340269;26;21086;-65
2024/04/20 11:39:24;;;;;;;1.00;1.00;;;8.30;99.90;;;;;;5333649;26;20481;-65
2024/04/20 11:42:04;;;;;;;1.53;1.43;;;8.30;99.90;;;;;;5342831;26;20545;-65
2024/04/20 11:44:37;;;;;;;1.33;1.00;;;8.30;99.90;;;;;;5342882;26;20997;-65
2024/04/20 11:47:17;;;;;;;1.20;1.10;;;8.30;99.90;;;;;;5329661;26;20492;-65
2024/04/20 11:49:52;;;;;;;2.83;1.20;;;8.20;99.90;;;;;;5352700;26;20502;-65
2024/04/20 11:55:11;;;;;;;1.43;1.07;;;8.30;99.90;;;;;;5347347;26;20579;-65
2024/04/20 11:57:42;;;;;;;1.40;1.30;;;8.30;99.90;;;;;;5329825;26;21045;-65
2024/04/20 12:00:14;;;;;;;1.60;1.50;;;8.30;99.90;;;;;;5344985;26;20528;-65
2024/04/20 12:02:48;;;;;;;1.17;1.07;;;8.40;99.90;;;;;;5339549;26;20574;-65
2024/04/20 12:05:18;;;;;;;1.30;1.20;;;8.40;99.90;;;;;;5335083;26;20615;-65
2024/04/20 12:07:48;;;;;;;1.20;1.10;;;8.50;99.90;;;;;;5332647;26;20488;-65
2024/04/20 12:10:18;;;;;;;1.47;1.37;;;8.50;99.90;;;;;;5347606;26;20476;-65
2024/04/20 12:12:48;;;;;;;1.40;1.30;;;8.50;99.90;;;;;;5348081;26;21096;-65
2024/04/20 12:15:17;;;;;;;1.00;1.00;;;8.60;99.90;;;;;;5334783;26;20622;-65
2024/04/20 12:17:50;;;;;;;1.53;1.43;;;8.70;99.90;;;;;;5339304;26;21302;-65
2024/04/20 12:20:20;;;;;;;1.03;1.00;;;8.70;99.90;;;;;;5344121;26;20532;-65
2024/04/20 12:22:50;;;;;;;1.50;1.40;;;8.70;99.90;;;;;;5333036;26;20871;-65
2024/04/20 12:25:20;;;;;;;1.70;1.47;;;8.80;99.90;;;;;;5344726;26;20990;-65
2024/04/20 12:27:50;;;;;;;1.43;1.33;;;8.80;99.90;;;;;;5342968;26;20486;-67
2024/04/20 12:30:20;;;;;;;1.33;1.23;;;8.80;99.90;;;;;;5345032;26;20539;-65
2024/04/20 12:32:53;;;;;;;1.63;1.53;;;8.70;99.90;;;;;;5347545;26;20481;-65
2024/04/20 12:35:23;;;;;;;1.50;1.40;;;8.80;99.90;;;;;;5348883;26;20476;-65
2024/04/20 12:37:52;;;;;;;1.50;1.40;;;8.80;99.90;;;;;;5349917;26;20615;-65
2024/04/20 12:40:22;;;;;;;1.80;1.50;;;8.90;99.90;;;;;;5344724;26;20488;-65
2024/04/20 12:42:52;;;;;;;1.73;1.30;;;8.90;99.90;;;;;;5344550;26;21050;-65
2024/04/20 12:45:23;;;;;;;1.83;1.73;;;9.00;99.90;;;;;;5347436;26;20604;-65
2024/04/20 12:47:55;;;;;;;2.00;1.80;;;9.10;99.90;;;;;;5330120;26;20492;-65
2024/04/20 12:50:25;;;;;;;1.87;1.40;;;9.20;99.90;;;;;;5334613;26;20612;-65
2024/04/20 12:52:55;;;;;;;1.70;1.60;;;9.30;99.90;;;;;;5336353;26;20497;-65
2024/04/20 12:55:25;;;;;;;1.30;1.20;;;9.40;99.90;;;;;;5328385;26;21484;-65
2024/04/20 12:57:54;;;;;;;1.20;1.10;;;9.40;99.90;;;;;;5328551;26;25775;-65
2024/04/20 13:00:26;;;;;;;1.70;1.60;;;9.70;99.90;;;;;;5340362;26;20476;-65
2024/04/20 13:02:58;;;;;;;1.53;1.40;;;9.90;99.90;;;;;;5329673;26;20529;-65
2024/04/20 13:05:29;;;;;;;1.50;1.40;;;10.10;99.90;;;;;;5326177;26;20496;-65
2024/04/20 13:07:58;;;;;;;1.33;1.23;;;10.30;99.90;;;;;;5334139;26;20538;-65
2024/04/20 13:10:28;;;;;;;1.50;1.37;;;10.50;99.90;;;;;;5338001;26;20581;-65
2024/04/20 13:12:58;;;;;;;1.50;1.40;;;10.60;99.90;;;;;;5336496;26;21258;-65
2024/04/20 13:15:28;;;;;;;1.90;1.70;;;10.60;99.90;;;;;;5330774;26;20582;-65
2024/04/20 13:18:00;;;;;;;1.47;1.37;;;10.70;99.90;;;;;;5333784;26;20489;-65
2024/04/20 13:20:30;;;;;;;1.23;1.13;;;10.90;99.90;;;;;;5328475;26;20472;-65